sensor_id;sensor_type;location;lat;lon;timestamp;P1;durP1;ratioP1;P2;durP2;ratioP2
18657;SDS011;9458;50.942;5.074;2024-03-07T17:55:30;31.92;;;14.70;;
18657;SDS011;9458;50.942;5.074;2024-03-07T17:57:57;27.77;;;14.73;;
18657;SDS011;9458;50.942;5.074;2024-03-07T18:00:26;26.17;;;15.48;;
18657;SDS011;9458;50.942;5.074;2024-03-07T18:02:53;29.20;;;14.93;;
18657;SDS011;9458;50.942;5.074;2024-03-07T18:05:21;30.25;;;15.98;;
18657;SDS011;9458;50.942;5.074;2024-03-07T18:07:51;31.38;;;15.90;;
18657;SDS011;9458;50.942;5.074;2024-03-07T18:10:20;27.58;;;14.95;;
18657;SDS011;9458;50.942;5.074;2024-03-07T18:12:50;30.83;;;16.45;;
18657;SDS011;9458;50.942;5.074;2024-03-07T18:15:19;29.55;;;16.08;;
18657;SDS011;9458;50.942;5.074;2024-03-07T18:17:47;28.08;;;17.02;;
18657;SDS011;9458;50.942;5.074;2024-03-07T18:20:18;28.60;;;15.90;;
18657;SDS011;9458;50.942;5.074;2024-03-07T18:22:46;28.33;;;15.65;;
18657;SDS011;9458;50.942;5.074;2024-03-07T18:25:15;29.45;;;16.20;;
18657;SDS011;9458;50.942;5.074;2024-03-07T18:27:49;31.70;;;16.52;;
18657;SDS011;9458;50.942;5.074;2024-03-07T18:30:16;27.55;;;14.30;;
18657;SDS011;9458;50.942;5.074;2024-03-07T18:32:44;30.00;;;15.20;;
18657;SDS011;9458;50.942;5.074;2024-03-07T18:35:12;28.88;;;15.13;;
18657;SDS011;9458;50.942;5.074;2024-03-07T18:37:40;26.48;;;14.35;;
18657;SDS011;9458;50.942;5.074;2024-03-07T18:40:10;29.30;;;15.38;;
18657;SDS011;9458;50.942;5.074;2024-03-07T18:42:40;28.77;;;14.80;;
18657;SDS011;9458;50.942;5.074;2024-03-07T18:45:12;29.35;;;15.68;;
18657;SDS011;9458;50.942;5.074;2024-03-07T18:47:44;26.17;;;13.85;;
18657;SDS011;9458;50.942;5.074;2024-03-07T18:50:17;24.00;;;13.48;;
18657;SDS011;9458;50.942;5.074;2024-03-07T18:52:48;26.73;;;14.07;;
18657;SDS011;9458;50.942;5.074;2024-03-07T18:55:17;27.92;;;14.48;;
18657;SDS011;9458;50.942;5.074;2024-03-07T18:57:47;22.27;;;13.23;;
18657;SDS011;9458;50.942;5.074;2024-03-07T19:00:17;20.67;;;12.27;;
18657;SDS011;9458;50.942;5.074;2024-03-07T19:03:03;21.10;;;11.98;;
18657;SDS011;9458;50.942;5.074;2024-03-07T19:05:32;22.50;;;12.35;;
18657;SDS011;9458;50.942;5.074;2024-03-07T19:08:02;20.48;;;11.40;;
18657;SDS011;9458;50.942;5.074;2024-03-07T19:10:40;19.38;;;11.38;;
18657;SDS011;9458;50.942;5.074;2024-03-07T19:13:08;26.30;;;12.52;;
18657;SDS011;9458;50.942;5.074;2024-03-07T19:15:40;22.70;;;11.75;;
18657;SDS011;9458;50.942;5.074;2024-03-07T19:18:10;23.83;;;12.75;;
18657;SDS011;9458;50.942;5.074;2024-03-07T19:20:42;24.17;;;13.38;;
18657;SDS011;9458;50.942;5.074;2024-03-07T19:23:10;21.60;;;11.85;;
18657;SDS011;9458;50.942;5.074;2024-03-07T19:25:38;23.83;;;12.73;;
18657;SDS011;9458;50.942;5.074;2024-03-07T19:28:05;22.65;;;11.88;;
18657;SDS011;9458;50.942;5.074;2024-03-07T19:30:39;22.23;;;11.73;;
18657;SDS011;9458;50.942;5.074;2024-03-07T19:33:09;22.90;;;11.50;;
18657;SDS011;9458;50.942;5.074;2024-03-07T19:35:40;20.67;;;12.63;;
18657;SDS011;9458;50.942;5.074;2024-03-07T19:38:08;22.73;;;11.77;;
18657;SDS011;9458;50.942;5.074;2024-03-07T19:40:36;20.92;;;11.63;;
18657;SDS011;9458;50.942;5.074;2024-03-07T19:43:03;21.02;;;12.35;;
18657;SDS011;9458;50.942;5.074;2024-03-07T19:45:32;23.00;;;13.57;;
18657;SDS011;9458;50.942;5.074;2024-03-07T19:48:03;22.95;;;12.52;;
18657;SDS011;9458;50.942;5.074;2024-03-07T19:50:30;22.67;;;12.00;;
18657;SDS011;9458;50.942;5.074;2024-03-07T19:52:58;23.38;;;12.10;;
18657;SDS011;9458;50.942;5.074;2024-03-07T19:55:26;21.55;;;12.82;;
18657;SDS011;9458;50.942;5.074;2024-03-07T19:57:57;23.58;;;12.90;;
18657;SDS011;9458;50.942;5.074;2024-03-07T20:00:24;20.17;;;11.75;;
18657;SDS011;9458;50.942;5.074;2024-03-07T20:02:58;23.25;;;11.90;;
18657;SDS011;9458;50.942;5.074;2024-03-07T20:05:27;23.88;;;12.10;;
18657;SDS011;9458;50.942;5.074;2024-03-07T20:07:57;22.65;;;11.80;;
18657;SDS011;9458;50.942;5.074;2024-03-07T20:10:25;20.52;;;12.23;;
18657;SDS011;9458;50.942;5.074;2024-03-07T20:12:55;23.75;;;11.68;;
18657;SDS011;9458;50.942;5.074;2024-03-07T20:15:23;19.63;;;11.32;;
18657;SDS011;9458;50.942;5.074;2024-03-07T20:17:51;21.13;;;11.50;;
18657;SDS011;9458;50.942;5.074;2024-03-07T20:20:19;22.90;;;11.88;;
18657;SDS011;9458;50.942;5.074;2024-03-07T20:22:50;22.17;;;12.10;;
18657;SDS011;9458;50.942;5.074;2024-03-07T20:25:18;20.58;;;12.30;;
18657;SDS011;9458;50.942;5.074;2024-03-07T20:27:46;22.63;;;12.13;;
18657;SDS011;9458;50.942;5.074;2024-03-07T20:30:15;27.35;;;13.75;;
18657;SDS011;9458;50.942;5.074;2024-03-07T20:35:13;24.45;;;13.35;;
18657;SDS011;9458;50.942;5.074;2024-03-07T20:37:43;25.58;;;12.55;;
18657;SDS011;9458;50.942;5.074;2024-03-07T20:40:15;20.80;;;11.70;;
18657;SDS011;9458;50.942;5.074;2024-03-07T20:42:45;25.55;;;12.90;;
18657;SDS011;9458;50.942;5.074;2024-03-07T20:45:13;23.38;;;12.15;;
18657;SDS011;9458;50.942;5.074;2024-03-07T20:47:40;25.50;;;12.50;;
18657;SDS011;9458;50.942;5.074;2024-03-07T20:50:09;24.65;;;12.57;;
18657;SDS011;9458;50.942;5.074;2024-03-07T20:52:37;23.55;;;13.02;;
18657;SDS011;9458;50.942;5.074;2024-03-07T20:55:06;25.58;;;12.40;;
18657;SDS011;9458;50.942;5.074;2024-03-07T20:57:41;23.85;;;12.23;;
18657;SDS011;9458;50.942;5.074;2024-03-07T21:00:12;25.00;;;12.60;;
18657;SDS011;9458;50.942;5.074;2024-03-07T21:02:40;26.17;;;12.13;;
18657;SDS011;9458;50.942;5.074;2024-03-07T21:05:08;25.40;;;12.23;;
18657;SDS011;9458;50.942;5.074;2024-03-07T21:07:38;23.40;;;11.93;;
18657;SDS011;9458;50.942;5.074;2024-03-07T21:10:07;24.75;;;13.10;;
18657;SDS011;9458;50.942;5.074;2024-03-07T21:12:37;24.23;;;12.40;;
18657;SDS011;9458;50.942;5.074;2024-03-07T21:15:07;25.50;;;13.27;;
18657;SDS011;9458;50.942;5.074;2024-03-07T21:17:37;24.55;;;12.52;;
18657;SDS011;9458;50.942;5.074;2024-03-07T21:20:09;23.20;;;12.80;;
18657;SDS011;9458;50.942;5.074;2024-03-07T21:22:38;24.40;;;12.77;;
18657;SDS011;9458;50.942;5.074;2024-03-07T21:25:06;24.23;;;12.27;;
18657;SDS011;9458;50.942;5.074;2024-03-07T21:27:37;23.58;;;12.15;;
18657;SDS011;9458;50.942;5.074;2024-03-07T21:30:08;27.20;;;13.48;;
18657;SDS011;9458;50.942;5.074;2024-03-07T21:32:36;24.60;;;11.93;;
18657;SDS011;9458;50.942;5.074;2024-03-07T21:35:04;23.65;;;11.93;;
18657;SDS011;9458;50.942;5.074;2024-03-07T21:37:32;28.27;;;13.00;;
18657;SDS011;9458;50.942;5.074;2024-03-07T21:40:00;29.13;;;13.95;;
18657;SDS011;9458;50.942;5.074;2024-03-07T21:42:28;25.00;;;12.20;;
18657;SDS011;9458;50.942;5.074;2024-03-07T21:44:55;25.27;;;12.35;;
18657;SDS011;9458;50.942;5.074;2024-03-07T21:47:25;23.67;;;13.10;;
18657;SDS011;9458;50.942;5.074;2024-03-07T21:49:53;24.73;;;12.30;;
18657;SDS011;9458;50.942;5.074;2024-03-07T21:52:23;25.30;;;11.75;;
18657;SDS011;9458;50.942;5.074;2024-03-07T21:54:53;27.52;;;13.95;;
18657;SDS011;9458;50.942;5.074;2024-03-07T21:57:23;27.73;;;12.93;;
18657;SDS011;9458;50.942;5.074;2024-03-07T21:59:51;28.73;;;12.77;;
18657;SDS011;9458;50.942;5.074;2024-03-07T22:02:22;26.50;;;12.20;;
18657;SDS011;9458;50.942;5.074;2024-03-07T22:04:52;26.67;;;12.70;;
18657;SDS011;9458;50.942;5.074;2024-03-07T22:07:21;27.92;;;13.48;;
18657;SDS011;9458;50.942;5.074;2024-03-07T22:09:50;27.85;;;13.35;;
18657;SDS011;9458;50.942;5.074;2024-03-07T22:12:17;28.00;;;13.45;;
18657;SDS011;9458;50.942;5.074;2024-03-07T22:14:47;29.17;;;13.27;;
18657;SDS011;9458;50.942;5.074;2024-03-07T22:17:14;28.13;;;13.57;;
18657;SDS011;9458;50.942;5.074;2024-03-07T22:19:44;26.08;;;12.32;;
18657;SDS011;9458;50.942;5.074;2024-03-07T22:22:11;26.95;;;12.70;;
18657;SDS011;9458;50.942;5.074;2024-03-07T22:24:39;24.70;;;12.07;;
18657;SDS011;9458;50.942;5.074;2024-03-07T22:27:06;28.15;;;12.77;;
18657;SDS011;9458;50.942;5.074;2024-03-07T22:29:35;28.25;;;12.48;;
18657;SDS011;9458;50.942;5.074;2024-03-07T22:32:03;26.63;;;12.95;;
18657;SDS011;9458;50.942;5.074;2024-03-07T22:34:31;25.75;;;12.60;;
18657;SDS011;9458;50.942;5.074;2024-03-07T22:37:00;27.73;;;12.98;;
18657;SDS011;9458;50.942;5.074;2024-03-07T22:39:31;27.90;;;13.30;;
18657;SDS011;9458;50.942;5.074;2024-03-07T22:41:59;31.40;;;13.80;;
18657;SDS011;9458;50.942;5.074;2024-03-07T22:44:28;26.80;;;13.23;;
18657;SDS011;9458;50.942;5.074;2024-03-07T22:46:55;24.70;;;13.05;;
18657;SDS011;9458;50.942;5.074;2024-03-07T22:49:23;28.88;;;13.63;;
18657;SDS011;9458;50.942;5.074;2024-03-07T22:51:51;25.52;;;13.02;;
18657;SDS011;9458;50.942;5.074;2024-03-07T22:54:27;27.60;;;13.68;;
18657;SDS011;9458;50.942;5.074;2024-03-07T22:56:55;28.38;;;13.38;;
18657;SDS011;9458;50.942;5.074;2024-03-07T23:01:52;26.60;;;13.32;;
18657;SDS011;9458;50.942;5.074;2024-03-07T23:04:20;30.58;;;14.70;;
18657;SDS011;9458;50.942;5.074;2024-03-07T23:06:50;32.50;;;14.45;;
18657;SDS011;9458;50.942;5.074;2024-03-07T23:09:18;27.60;;;13.57;;
18657;SDS011;9458;50.942;5.074;2024-03-07T23:11:48;28.10;;;14.25;;
18657;SDS011;9458;50.942;5.074;2024-03-07T23:14:17;32.25;;;14.10;;
18657;SDS011;9458;50.942;5.074;2024-03-07T23:16:45;26.45;;;15.00;;
18657;SDS011;9458;50.942;5.074;2024-03-07T23:19:13;32.42;;;15.23;;
18657;SDS011;9458;50.942;5.074;2024-03-07T23:21:41;31.65;;;15.80;;
18657;SDS011;9458;50.942;5.074;2024-03-07T23:24:09;31.73;;;14.50;;
18657;SDS011;9458;50.942;5.074;2024-03-07T23:26:38;35.55;;;15.05;;
18657;SDS011;9458;50.942;5.074;2024-03-07T23:29:14;32.20;;;14.90;;
18657;SDS011;9458;50.942;5.074;2024-03-07T23:31:41;27.45;;;14.40;;
18657;SDS011;9458;50.942;5.074;2024-03-07T23:34:09;31.23;;;15.75;;
18657;SDS011;9458;50.942;5.074;2024-03-07T23:36:39;31.17;;;14.05;;
18657;SDS011;9458;50.942;5.074;2024-03-07T23:39:08;34.13;;;15.23;;
18657;SDS011;9458;50.942;5.074;2024-03-07T23:41:38;32.88;;;16.05;;
18657;SDS011;9458;50.942;5.074;2024-03-07T23:44:06;32.63;;;14.98;;
18657;SDS011;9458;50.942;5.074;2024-03-07T23:46:35;33.90;;;16.63;;
18657;SDS011;9458;50.942;5.074;2024-03-07T23:49:02;35.78;;;15.25;;
18657;SDS011;9458;50.942;5.074;2024-03-07T23:51:29;36.35;;;15.95;;
18657;SDS011;9458;50.942;5.074;2024-03-07T23:53:57;35.70;;;16.98;;
18657;SDS011;9458;50.942;5.074;2024-03-07T23:56:24;34.58;;;16.25;;
18657;SDS011;9458;50.942;5.074;2024-03-07T23:58:52;37.95;;;17.65;;
